sensor_id;sensor_type;location;lat;lon;timestamp;temperature;humidity
33881;DHT22;20172;47.530;10.256;2023-04-12T00:00:14;8.30;99.90
33881;DHT22;20172;47.530;10.256;2023-04-12T00:02:39;8.40;99.90
33881;DHT22;20172;47.530;10.256;2023-04-12T00:05:06;8.50;99.90
33881;DHT22;20172;47.530;10.256;2023-04-12T00:07:33;8.50;99.90
33881;DHT22;20172;47.530;10.256;2023-04-12T00:09:59;8.50;99.90
33881;DHT22;20172;47.530;10.256;2023-04-12T00:12:24;8.50;99.90
33881;DHT22;20172;47.530;10.256;2023-04-12T00:14:50;8.60;99.90
33881;DHT22;20172;47.530;10.256;2023-04-12T00:17:15;8.60;99.90
33881;DHT22;20172;47.530;10.256;2023-04-12T00:19:43;8.70;99.90
33881;DHT22;20172;47.530;10.256;2023-04-12T00:22:09;8.70;99.90
33881;DHT22;20172;47.530;10.256;2023-04-12T00:24:37;8.70;99.90
33881;DHT22;20172;47.530;10.256;2023-04-12T00:27:03;8.80;99.90
33881;DHT22;20172;47.530;10.256;2023-04-12T00:29:30;8.80;99.90
33881;DHT22;20172;47.530;10.256;2023-04-12T00:31:56;8.80;99.90
33881;DHT22;20172;47.530;10.256;2023-04-12T00:34:22;8.80;99.90
33881;DHT22;20172;47.530;10.256;2023-04-12T00:36:48;8.80;99.90
33881;DHT22;20172;47.530;10.256;2023-04-12T00:39:14;8.80;99.90
33881;DHT22;20172;47.530;10.256;2023-04-12T00:41:39;8.70;99.90
33881;DHT22;20172;47.530;10.256;2023-04-12T00:44:05;8.60;99.90
33881;DHT22;20172;47.530;10.256;2023-04-12T00:46:31;8.50;99.90
33881;DHT22;20172;47.530;10.256;2023-04-12T00:48:57;8.50;99.90
33881;DHT22;20172;47.530;10.256;2023-04-12T00:51:23;8.50;99.90
33881;DHT22;20172;47.530;10.256;2023-04-12T00:53:53;8.50;99.90
33881;DHT22;20172;47.530;10.256;2023-04-12T00:56:21;8.60;99.90
33881;DHT22;20172;47.530;10.256;2023-04-12T00:58:48;8.70;99.90
33881;DHT22;20172;47.530;10.256;2023-04-12T01:01:14;8.70;99.90
33881;DHT22;20172;47.530;10.256;2023-04-12T01:03:41;8.70;99.90
33881;DHT22;20172;47.530;10.256;2023-04-12T01:14:22;8.60;99.90
33881;DHT22;20172;47.530;10.256;2023-04-12T01:16:53;8.70;99.90
33881;DHT22;20172;47.530;10.256;2023-04-12T01:28:07;8.70;99.90
33881;DHT22;20172;47.530;10.256;2023-04-12T01:30:08;8.60;99.90
33881;DHT22;20172;47.530;10.256;2023-04-12T01:32:37;8.60;99.90
33881;DHT22;20172;47.530;10.256;2023-04-12T01:35:03;8.70;99.90
33881;DHT22;20172;47.530;10.256;2023-04-12T01:37:31;8.70;99.90
33881;DHT22;20172;47.530;10.256;2023-04-12T01:39:57;8.60;99.90
33881;DHT22;20172;47.530;10.256;2023-04-12T01:42:23;8.40;99.90
33881;DHT22;20172;47.530;10.256;2023-04-12T01:44:48;8.20;99.90
33881;DHT22;20172;47.530;10.256;2023-04-12T01:47:14;8.10;99.90
33881;DHT22;20172;47.530;10.256;2023-04-12T01:49:47;8.10;99.90
33881;DHT22;20172;47.530;10.256;2023-04-12T01:52:15;8.00;99.90
33881;DHT22;20172;47.530;10.256;2023-04-12T01:54:43;7.90;99.90
33881;DHT22;20172;47.530;10.256;2023-04-12T01:57:11;7.80;99.90
33881;DHT22;20172;47.530;10.256;2023-04-12T01:59:38;7.70;99.90
33881;DHT22;20172;47.530;10.256;2023-04-12T02:02:04;7.80;99.90
33881;DHT22;20172;47.530;10.256;2023-04-12T02:04:31;7.80;99.90
33881;DHT22;20172;47.530;10.256;2023-04-12T02:06:57;7.80;99.90
33881;DHT22;20172;47.530;10.256;2023-04-12T02:09:22;7.70;99.90
33881;DHT22;20172;47.530;10.256;2023-04-12T02:11:48;7.60;99.90
33881;DHT22;20172;47.530;10.256;2023-04-12T02:14:14;7.50;99.90
33881;DHT22;20172;47.530;10.256;2023-04-12T02:16:40;7.50;99.90
33881;DHT22;20172;47.530;10.256;2023-04-12T02:19:06;7.50;99.90
33881;DHT22;20172;47.530;10.256;2023-04-12T02:21:43;7.50;99.90
33881;DHT22;20172;47.530;10.256;2023-04-12T02:24:09;7.50;99.90
33881;DHT22;20172;47.530;10.256;2023-04-12T02:26:34;7.40;99.90
33881;DHT22;20172;47.530;10.256;2023-04-12T02:29:01;7.40;99.90
33881;DHT22;20172;47.530;10.256;2023-04-12T02:31:27;7.40;99.90
33881;DHT22;20172;47.530;10.256;2023-04-12T02:33:52;7.30;99.90
33881;DHT22;20172;47.530;10.256;2023-04-12T02:36:18;7.40;99.90
33881;DHT22;20172;47.530;10.256;2023-04-12T02:38:44;7.40;99.90
33881;DHT22;20172;47.530;10.256;2023-04-12T02:41:15;7.40;99.90
33881;DHT22;20172;47.530;10.256;2023-04-12T02:43:41;7.40;99.90
33881;DHT22;20172;47.530;10.256;2023-04-12T02:46:06;7.30;99.90
33881;DHT22;20172;47.530;10.256;2023-04-12T02:48:32;7.30;99.90
33881;DHT22;20172;47.530;10.256;2023-04-12T02:50:57;7.50;99.90
33881;DHT22;20172;47.530;10.256;2023-04-12T02:53:23;7.40;99.90
33881;DHT22;20172;47.530;10.256;2023-04-12T02:55:48;7.40;99.90
33881;DHT22;20172;47.530;10.256;2023-04-12T02:58:14;7.50;99.90
33881;DHT22;20172;47.530;10.256;2023-04-12T03:00:39;7.50;99.90
33881;DHT22;20172;47.530;10.256;2023-04-12T03:03:08;7.30;99.90
33881;DHT22;20172;47.530;10.256;2023-04-12T03:05:33;7.30;99.90
33881;DHT22;20172;47.530;10.256;2023-04-12T03:08:00;7.30;99.90
33881;DHT22;20172;47.530;10.256;2023-04-12T03:10:25;7.30;99.90
33881;DHT22;20172;47.530;10.256;2023-04-12T03:12:51;7.30;99.90
33881;DHT22;20172;47.530;10.256;2023-04-12T03:15:17;7.40;99.90
33881;DHT22;20172;47.530;10.256;2023-04-12T03:17:42;7.30;99.90
33881;DHT22;20172;47.530;10.256;2023-04-12T03:20:09;7.40;99.90
33881;DHT22;20172;47.530;10.256;2023-04-12T03:22:35;7.70;99.90
33881;DHT22;20172;47.530;10.256;2023-04-12T03:25:01;7.60;99.90
33881;DHT22;20172;47.530;10.256;2023-04-12T03:27:28;7.50;99.90
33881;DHT22;20172;47.530;10.256;2023-04-12T03:29:53;7.60;99.90
33881;DHT22;20172;47.530;10.256;2023-04-12T03:32:19;7.80;99.90
33881;DHT22;20172;47.530;10.256;2023-04-12T03:34:45;7.80;99.90
33881;DHT22;20172;47.530;10.256;2023-04-12T03:37:11;7.80;99.90
33881;DHT22;20172;47.530;10.256;2023-04-12T03:39:37;7.70;99.90
33881;DHT22;20172;47.530;10.256;2023-04-12T03:42:02;7.60;99.90
33881;DHT22;20172;47.530;10.256;2023-04-12T03:44:28;7.60;99.90
33881;DHT22;20172;47.530;10.256;2023-04-12T03:46:53;7.50;99.90
33881;DHT22;20172;47.530;10.256;2023-04-12T03:49:19;7.50;99.90
33881;DHT22;20172;47.530;10.256;2023-04-12T03:51:45;7.50;99.90
33881;DHT22;20172;47.530;10.256;2023-04-12T03:54:11;7.40;99.90
33881;DHT22;20172;47.530;10.256;2023-04-12T03:56:37;7.40;99.90
33881;DHT22;20172;47.530;10.256;2023-04-12T03:59:04;7.30;99.90
33881;DHT22;20172;47.530;10.256;2023-04-12T04:01:30;7.30;99.90
33881;DHT22;20172;47.530;10.256;2023-04-12T04:03:55;7.30;99.90
33881;DHT22;20172;47.530;10.256;2023-04-12T04:06:21;7.30;99.90
33881;DHT22;20172;47.530;10.256;2023-04-12T04:08:47;7.20;99.90
33881;DHT22;20172;47.530;10.256;2023-04-12T04:11:12;7.20;99.90
33881;DHT22;20172;47.530;10.256;2023-04-12T04:13:38;7.40;99.90
33881;DHT22;20172;47.530;10.256;2023-04-12T04:16:04;7.50;99.90
33881;DHT22;20172;47.530;10.256;2023-04-12T04:18:30;7.60;99.90
33881;DHT22;20172;47.530;10.256;2023-04-12T04:20:56;7.60;99.90
33881;DHT22;20172;47.530;10.256;2023-04-12T04:23:23;7.50;99.90
33881;DHT22;20172;47.530;10.256;2023-04-12T04:25:48;7.40;99.90
33881;DHT22;20172;47.530;10.256;2023-04-12T04:28:15;7.40;99.90
33881;DHT22;20172;47.530;10.256;2023-04-12T04:30:40;7.30;99.90
33881;DHT22;20172;47.530;10.256;2023-04-12T04:33:10;7.40;99.90
33881;DHT22;20172;47.530;10.256;2023-04-12T04:35:38;7.50;99.90
33881;DHT22;20172;47.530;10.256;2023-04-12T04:38:04;7.40;99.90
33881;DHT22;20172;47.530;10.256;2023-04-12T04:40:30;7.50;99.90
33881;DHT22;20172;47.530;10.256;2023-04-12T04:42:56;7.60;99.90
33881;DHT22;20172;47.530;10.256;2023-04-12T04:45:22;7.50;99.90
33881;DHT22;20172;47.530;10.256;2023-04-12T04:47:53;7.50;99.90
33881;DHT22;20172;47.530;10.256;2023-04-12T04:50:22;7.50;99.90
33881;DHT22;20172;47.530;10.256;2023-04-12T04:52:50;7.40;99.90
33881;DHT22;20172;47.530;10.256;2023-04-12T04:55:16;7.40;99.90
33881;DHT22;20172;47.530;10.256;2023-04-12T04:57:42;7.40;99.90
33881;DHT22;20172;47.530;10.256;2023-04-12T05:00:08;7.50;99.90
33881;DHT22;20172;47.530;10.256;2023-04-12T05:02:40;7.40;99.90
33881;DHT22;20172;47.530;10.256;2023-04-12T05:05:10;7.40;99.90
33881;DHT22;20172;47.530;10.256;2023-04-12T05:07:36;7.60;99.90
33881;DHT22;20172;47.530;10.256;2023-04-12T05:10:03;7.70;99.90
33881;DHT22;20172;47.530;10.256;2023-04-12T05:12:28;7.60;99.90
33881;DHT22;20172;47.530;10.256;2023-04-12T05:14:54;7.60;99.90
33881;DHT22;20172;47.530;10.256;2023-04-12T05:17:19;7.70;99.90
33881;DHT22;20172;47.530;10.256;2023-04-12T05:19:45;8.00;99.90
33881;DHT22;20172;47.530;10.256;2023-04-12T05:22:11;7.80;99.90
33881;DHT22;20172;47.530;10.256;2023-04-12T05:24:38;7.80;99.90
33881;DHT22;20172;47.530;10.256;2023-04-12T05:27:03;7.90;99.90
33881;DHT22;20172;47.530;10.256;2023-04-12T05:29:29;7.90;99.90
33881;DHT22;20172;47.530;10.256;2023-04-12T05:31:54;7.90;99.90
33881;DHT22;20172;47.530;10.256;2023-04-12T05:34:20;8.00;99.90
33881;DHT22;20172;47.530;10.256;2023-04-12T05:36:45;8.10;99.90
33881;DHT22;20172;47.530;10.256;2023-04-12T05:39:11;7.90;99.90
33881;DHT22;20172;47.530;10.256;2023-04-12T05:41:36;7.60;99.90
33881;DHT22;20172;47.530;10.256;2023-04-12T05:44:02;7.50;99.90
33881;DHT22;20172;47.530;10.256;2023-04-12T05:46:28;7.50;99.90
33881;DHT22;20172;47.530;10.256;2023-04-12T05:48:54;7.60;99.90
33881;DHT22;20172;47.530;10.256;2023-04-12T05:51:20;7.90;99.90
33881;DHT22;20172;47.530;10.256;2023-04-12T05:53:45;8.00;99.90
33881;DHT22;20172;47.530;10.256;2023-04-12T05:56:11;7.90;99.90
33881;DHT22;20172;47.530;10.256;2023-04-12T05:58:36;7.80;99.90
33881;DHT22;20172;47.530;10.256;2023-04-12T06:01:02;7.80;99.90
33881;DHT22;20172;47.530;10.256;2023-04-12T06:03:27;7.70;99.90
33881;DHT22;20172;47.530;10.256;2023-04-12T06:05:54;7.60;99.90
33881;DHT22;20172;47.530;10.256;2023-04-12T06:08:20;7.70;99.90
33881;DHT22;20172;47.530;10.256;2023-04-12T06:10:46;7.70;99.90
33881;DHT22;20172;47.530;10.256;2023-04-12T06:13:11;7.90;99.90
33881;DHT22;20172;47.530;10.256;2023-04-12T06:15:37;7.80;99.90
33881;DHT22;20172;47.530;10.256;2023-04-12T06:18:02;7.80;99.90
33881;DHT22;20172;47.530;10.256;2023-04-12T06:20:28;7.80;99.90
33881;DHT22;20172;47.530;10.256;2023-04-12T06:22:53;7.90;99.90
33881;DHT22;20172;47.530;10.256;2023-04-12T06:25:19;7.90;99.90
33881;DHT22;20172;47.530;10.256;2023-04-12T06:27:45;8.00;99.90
33881;DHT22;20172;47.530;10.256;2023-04-12T06:30:11;8.00;99.90
33881;DHT22;20172;47.530;10.256;2023-04-12T06:32:36;7.90;99.90
33881;DHT22;20172;47.530;10.256;2023-04-12T06:35:03;7.90;99.90
33881;DHT22;20172;47.530;10.256;2023-04-12T06:37:29;7.90;99.90
33881;DHT22;20172;47.530;10.256;2023-04-12T06:39:54;7.80;99.90
33881;DHT22;20172;47.530;10.256;2023-04-12T06:42:20;7.80;99.90
33881;DHT22;20172;47.530;10.256;2023-04-12T06:44:45;7.90;99.90
33881;DHT22;20172;47.530;10.256;2023-04-12T06:47:11;8.00;99.90
33881;DHT22;20172;47.530;10.256;2023-04-12T06:49:37;8.20;99.90
33881;DHT22;20172;47.530;10.256;2023-04-12T06:52:02;8.30;99.90
33881;DHT22;20172;47.530;10.256;2023-04-12T06:54:28;8.40;99.90
33881;DHT22;20172;47.530;10.256;2023-04-12T06:56:53;8.60;99.90
33881;DHT22;20172;47.530;10.256;2023-04-12T06:59:19;8.60;99.90
33881;DHT22;20172;47.530;10.256;2023-04-12T07:01:44;8.70;99.90
33881;DHT22;20172;47.530;10.256;2023-04-12T07:04:10;8.70;99.90
33881;DHT22;20172;47.530;10.256;2023-04-12T07:06:36;8.80;99.90
33881;DHT22;20172;47.530;10.256;2023-04-12T07:09:02;8.80;99.90
33881;DHT22;20172;47.530;10.256;2023-04-12T07:11:27;8.90;99.90
33881;DHT22;20172;47.530;10.256;2023-04-12T07:13:53;8.90;99.90
33881;DHT22;20172;47.530;10.256;2023-04-12T07:16:19;8.90;99.90
33881;DHT22;20172;47.530;10.256;2023-04-12T07:18:44;8.80;99.90
33881;DHT22;20172;47.530;10.256;2023-04-12T07:21:10;8.80;99.90
33881;DHT22;20172;47.530;10.256;2023-04-12T07:23:41;9.10;99.90
33881;DHT22;20172;47.530;10.256;2023-04-12T07:26:07;9.10;99.90
33881;DHT22;20172;47.530;10.256;2023-04-12T07:28:32;9.00;99.90
33881;DHT22;20172;47.530;10.256;2023-04-12T07:31:00;8.90;99.90
33881;DHT22;20172;47.530;10.256;2023-04-12T07:33:25;9.00;99.90
33881;DHT22;20172;47.530;10.256;2023-04-12T07:35:51;8.90;99.90
33881;DHT22;20172;47.530;10.256;2023-04-12T07:38:16;9.10;99.90
33881;DHT22;20172;47.530;10.256;2023-04-12T07:40:42;9.20;99.90
33881;DHT22;20172;47.530;10.256;2023-04-12T07:43:07;9.10;99.90
33881;DHT22;20172;47.530;10.256;2023-04-12T07:45:35;8.90;99.90
33881;DHT22;20172;47.530;10.256;2023-04-12T07:48:01;8.80;99.90
33881;DHT22;20172;47.530;10.256;2023-04-12T07:50:27;8.80;99.90
33881;DHT22;20172;47.530;10.256;2023-04-12T07:52:53;8.90;99.90
33881;DHT22;20172;47.530;10.256;2023-04-12T07:55:18;9.20;99.90
33881;DHT22;20172;47.530;10.256;2023-04-12T07:57:44;9.30;99.90
33881;DHT22;20172;47.530;10.256;2023-04-12T08:00:09;9.50;99.90
33881;DHT22;20172;47.530;10.256;2023-04-12T08:02:36;9.70;99.90
33881;DHT22;20172;47.530;10.256;2023-04-12T08:05:01;9.80;99.90
33881;DHT22;20172;47.530;10.256;2023-04-12T08:07:27;9.90;99.90
33881;DHT22;20172;47.530;10.256;2023-04-12T08:09:52;10.00;99.90
33881;DHT22;20172;47.530;10.256;2023-04-12T08:12:18;10.10;99.90
33881;DHT22;20172;47.530;10.256;2023-04-12T08:14:45;10.20;99.90
33881;DHT22;20172;47.530;10.256;2023-04-12T08:17:11;10.20;99.90
33881;DHT22;20172;47.530;10.256;2023-04-12T08:19:36;10.30;99.90
33881;DHT22;20172;47.530;10.256;2023-04-12T08:22:02;10.30;99.90
33881;DHT22;20172;47.530;10.256;2023-04-12T08:24:27;10.30;99.90
33881;DHT22;20172;47.530;10.256;2023-04-12T08:26:53;10.40;99.90
33881;DHT22;20172;47.530;10.256;2023-04-12T08:29:18;10.50;99.90
33881;DHT22;20172;47.530;10.256;2023-04-12T08:31:44;10.60;99.90
33881;DHT22;20172;47.530;10.256;2023-04-12T08:34:10;10.60;99.90
33881;DHT22;20172;47.530;10.256;2023-04-12T08:36:36;10.80;99.90
33881;DHT22;20172;47.530;10.256;2023-04-12T08:39:01;10.90;99.90
33881;DHT22;20172;47.530;10.256;2023-04-12T08:41:27;11.00;99.90
33881;DHT22;20172;47.530;10.256;2023-04-12T08:43:53;11.40;99.90
33881;DHT22;20172;47.530;10.256;2023-04-12T08:46:20;11.40;99.90
33881;DHT22;20172;47.530;10.256;2023-04-12T08:48:49;11.90;99.90
33881;DHT22;20172;47.530;10.256;2023-04-12T08:51:18;12.00;99.90
33881;DHT22;20172;47.530;10.256;2023-04-12T08:53:44;11.90;99.90
33881;DHT22;20172;47.530;10.256;2023-04-12T08:56:10;12.00;99.90
33881;DHT22;20172;47.530;10.256;2023-04-12T08:58:45;12.30;99.90
33881;DHT22;20172;47.530;10.256;2023-04-12T09:01:13;12.30;99.90
33881;DHT22;20172;47.530;10.256;2023-04-12T09:03:43;12.50;99.90
33881;DHT22;20172;47.530;10.256;2023-04-12T09:06:09;12.60;99.90
33881;DHT22;20172;47.530;10.256;2023-04-12T09:08:35;12.60;99.90
33881;DHT22;20172;47.530;10.256;2023-04-12T09:11:01;12.70;99.90
33881;DHT22;20172;47.530;10.256;2023-04-12T09:13:33;13.10;99.90
33881;DHT22;20172;47.530;10.256;2023-04-12T09:15:59;13.40;99.90
33881;DHT22;20172;47.530;10.256;2023-04-12T09:18:25;13.50;99.90
33881;DHT22;20172;47.530;10.256;2023-04-12T09:21:06;13.70;99.90
33881;DHT22;20172;47.530;10.256;2023-04-12T09:23:32;13.70;99.90
33881;DHT22;20172;47.530;10.256;2023-04-12T09:26:00;13.70;99.90
33881;DHT22;20172;47.530;10.256;2023-04-12T09:28:26;14.00;99.90
33881;DHT22;20172;47.530;10.256;2023-04-12T09:30:53;14.10;99.90
33881;DHT22;20172;47.530;10.256;2023-04-12T09:33:19;14.00;99.90
33881;DHT22;20172;47.530;10.256;2023-04-12T09:35:45;14.00;99.90
33881;DHT22;20172;47.530;10.256;2023-04-12T09:38:11;14.10;99.90
33881;DHT22;20172;47.530;10.256;2023-04-12T09:40:36;14.40;99.90
33881;DHT22;20172;47.530;10.256;2023-04-12T09:43:02;14.70;99.90
33881;DHT22;20172;47.530;10.256;2023-04-12T09:45:28;14.60;99.90
33881;DHT22;20172;47.530;10.256;2023-04-12T09:47:55;14.70;99.90
33881;DHT22;20172;47.530;10.256;2023-04-12T09:50:28;14.90;99.90
33881;DHT22;20172;47.530;10.256;2023-04-12T09:52:54;15.00;99.90
33881;DHT22;20172;47.530;10.256;2023-04-12T09:55:21;15.20;99.90
33881;DHT22;20172;47.530;10.256;2023-04-12T09:57:47;15.30;99.90
33881;DHT22;20172;47.530;10.256;2023-04-12T10:00:14;15.40;99.90
33881;DHT22;20172;47.530;10.256;2023-04-12T10:02:46;15.60;99.90
33881;DHT22;20172;47.530;10.256;2023-04-12T10:05:13;15.50;99.90
33881;DHT22;20172;47.530;10.256;2023-04-12T10:07:39;15.50;99.90
33881;DHT22;20172;47.530;10.256;2023-04-12T10:10:11;15.60;99.90
33881;DHT22;20172;47.530;10.256;2023-04-12T10:12:40;15.50;99.90
33881;DHT22;20172;47.530;10.256;2023-04-12T10:15:06;15.50;99.90
33881;DHT22;20172;47.530;10.256;2023-04-12T10:17:44;15.50;99.90
33881;DHT22;20172;47.530;10.256;2023-04-12T10:20:10;15.70;99.90
33881;DHT22;20172;47.530;10.256;2023-04-12T10:22:39;15.70;99.90
33881;DHT22;20172;47.530;10.256;2023-04-12T10:25:09;15.80;99.90
33881;DHT22;20172;47.530;10.256;2023-04-12T10:27:34;16.10;99.90
33881;DHT22;20172;47.530;10.256;2023-04-12T10:32:45;16.10;99.90
33881;DHT22;20172;47.530;10.256;2023-04-12T10:35:10;16.50;99.90
33881;DHT22;20172;47.530;10.256;2023-04-12T10:40:20;16.90;99.90
33881;DHT22;20172;47.530;10.256;2023-04-12T10:42:46;17.20;99.90
33881;DHT22;20172;47.530;10.256;2023-04-12T10:55:34;18.60;99.90
33881;DHT22;20172;47.530;10.256;2023-04-12T10:57:59;18.80;99.90
33881;DHT22;20172;47.530;10.256;2023-04-12T11:00:25;19.20;99.90
33881;DHT22;20172;47.530;10.256;2023-04-12T11:03:10;19.30;99.90
33881;DHT22;20172;47.530;10.256;2023-04-12T11:08:21;19.50;99.90
33881;DHT22;20172;47.530;10.256;2023-04-12T11:10:47;19.80;99.90
33881;DHT22;20172;47.530;10.256;2023-04-12T11:13:13;20.10;99.90
33881;DHT22;20172;47.530;10.256;2023-04-12T11:15:40;20.40;99.90
33881;DHT22;20172;47.530;10.256;2023-04-12T11:18:06;20.50;99.90
33881;DHT22;20172;47.530;10.256;2023-04-12T11:20:31;20.40;99.90
33881;DHT22;20172;47.530;10.256;2023-04-12T11:22:57;20.10;99.90
33881;DHT22;20172;47.530;10.256;2023-04-12T11:25:23;19.70;99.90
33881;DHT22;20172;47.530;10.256;2023-04-12T11:27:50;19.80;99.20
33881;DHT22;20172;47.530;10.256;2023-04-12T11:30:15;19.50;98.60
33881;DHT22;20172;47.530;10.256;2023-04-12T11:32:43;19.40;99.70
33881;DHT22;20172;47.530;10.256;2023-04-12T11:35:09;19.50;98.60
33881;DHT22;20172;47.530;10.256;2023-04-12T11:37:34;19.50;99.30
33881;DHT22;20172;47.530;10.256;2023-04-12T11:40:00;19.60;99.10
33881;DHT22;20172;47.530;10.256;2023-04-12T11:42:29;19.40;99.10
33881;DHT22;20172;47.530;10.256;2023-04-12T11:44:55;19.20;98.10
33881;DHT22;20172;47.530;10.256;2023-04-12T11:47:22;19.20;96.70
33881;DHT22;20172;47.530;10.256;2023-04-12T11:52:13;19.10;96.70
33881;DHT22;20172;47.530;10.256;2023-04-12T11:54:43;18.80;95.90
33881;DHT22;20172;47.530;10.256;2023-04-12T11:57:12;18.50;95.70
33881;DHT22;20172;47.530;10.256;2023-04-12T11:59:38;18.20;96.80
33881;DHT22;20172;47.530;10.256;2023-04-12T12:02:04;18.30;96.50
33881;DHT22;20172;47.530;10.256;2023-04-12T12:04:29;18.10;96.30
33881;DHT22;20172;47.530;10.256;2023-04-12T12:06:56;18.30;93.90
33881;DHT22;20172;47.530;10.256;2023-04-12T12:09:22;18.20;94.50
33881;DHT22;20172;47.530;10.256;2023-04-12T12:11:47;18.20;94.40
33881;DHT22;20172;47.530;10.256;2023-04-12T12:14:17;18.30;94.10
33881;DHT22;20172;47.530;10.256;2023-04-12T12:16:43;18.50;94.70
33881;DHT22;20172;47.530;10.256;2023-04-12T12:19:15;18.50;94.30
33881;DHT22;20172;47.530;10.256;2023-04-12T12:21:49;18.30;94.70
33881;DHT22;20172;47.530;10.256;2023-04-12T12:24:15;18.20;94.20
33881;DHT22;20172;47.530;10.256;2023-04-12T12:26:41;17.90;94.10
33881;DHT22;20172;47.530;10.256;2023-04-12T12:29:06;17.60;93.90
33881;DHT22;20172;47.530;10.256;2023-04-12T12:31:33;17.30;94.30
33881;DHT22;20172;47.530;10.256;2023-04-12T12:33:59;17.20;94.80
33881;DHT22;20172;47.530;10.256;2023-04-12T12:36:32;17.20;95.80
33881;DHT22;20172;47.530;10.256;2023-04-12T12:39:16;17.00;96.00
33881;DHT22;20172;47.530;10.256;2023-04-12T12:41:42;17.20;96.20
33881;DHT22;20172;47.530;10.256;2023-04-12T12:44:07;16.90;96.00
33881;DHT22;20172;47.530;10.256;2023-04-12T12:46:35;16.90;95.90
33881;DHT22;20172;47.530;10.256;2023-04-12T12:49:00;16.80;95.70
33881;DHT22;20172;47.530;10.256;2023-04-12T12:51:26;16.60;96.40
33881;DHT22;20172;47.530;10.256;2023-04-12T12:53:52;16.40;96.60
33881;DHT22;20172;47.530;10.256;2023-04-12T12:56:17;16.40;96.80
33881;DHT22;20172;47.530;10.256;2023-04-12T12:58:43;16.40;97.20
33881;DHT22;20172;47.530;10.256;2023-04-12T13:01:08;16.40;97.20
33881;DHT22;20172;47.530;10.256;2023-04-12T13:03:34;16.20;97.60
33881;DHT22;20172;47.530;10.256;2023-04-12T13:05:59;16.20;98.70
33881;DHT22;20172;47.530;10.256;2023-04-12T13:08:26;16.40;98.90
33881;DHT22;20172;47.530;10.256;2023-04-12T13:10:51;16.50;97.50
33881;DHT22;20172;47.530;10.256;2023-04-12T13:13:17;16.50;97.90
33881;DHT22;20172;47.530;10.256;2023-04-12T13:15:43;16.70;98.20
33881;DHT22;20172;47.530;10.256;2023-04-12T13:18:11;16.80;98.50
33881;DHT22;20172;47.530;10.256;2023-04-12T13:20:39;17.00;99.10
33881;DHT22;20172;47.530;10.256;2023-04-12T13:23:05;16.90;99.20
33881;DHT22;20172;47.530;10.256;2023-04-12T13:25:31;16.70;99.30
33881;DHT22;20172;47.530;10.256;2023-04-12T13:27:56;16.50;99.90
33881;DHT22;20172;47.530;10.256;2023-04-12T13:30:22;16.50;99.80
33881;DHT22;20172;47.530;10.256;2023-04-12T13:32:47;16.50;99.00
33881;DHT22;20172;47.530;10.256;2023-04-12T13:35:13;16.40;99.10
33881;DHT22;20172;47.530;10.256;2023-04-12T13:37:39;16.40;99.10
33881;DHT22;20172;47.530;10.256;2023-04-12T13:40:04;16.50;99.20
33881;DHT22;20172;47.530;10.256;2023-04-12T13:42:30;16.60;99.40
33881;DHT22;20172;47.530;10.256;2023-04-12T13:44:56;16.50;99.80
33881;DHT22;20172;47.530;10.256;2023-04-12T13:47:22;16.60;99.60
33881;DHT22;20172;47.530;10.256;2023-04-12T13:49:47;16.70;99.80
33881;DHT22;20172;47.530;10.256;2023-04-12T13:52:13;16.80;99.90
33881;DHT22;20172;47.530;10.256;2023-04-12T13:54:39;16.70;99.90
33881;DHT22;20172;47.530;10.256;2023-04-12T13:57:05;16.60;99.60
33881;DHT22;20172;47.530;10.256;2023-04-12T13:59:31;16.50;99.90
33881;DHT22;20172;47.530;10.256;2023-04-12T14:01:56;16.50;99.90
33881;DHT22;20172;47.530;10.256;2023-04-12T14:04:22;16.50;99.90
33881;DHT22;20172;47.530;10.256;2023-04-12T14:06:48;16.60;99.90
33881;DHT22;20172;47.530;10.256;2023-04-12T14:09:27;16.60;99.90
33881;DHT22;20172;47.530;10.256;2023-04-12T14:11:53;16.50;99.90
33881;DHT22;20172;47.530;10.256;2023-04-12T14:14:25;16.60;99.90
33881;DHT22;20172;47.530;10.256;2023-04-12T14:16:52;16.30;99.60
33881;DHT22;20172;47.530;10.256;2023-04-12T14:19:19;15.90;99.90
33881;DHT22;20172;47.530;10.256;2023-04-12T14:21:46;15.80;99.90
33881;DHT22;20172;47.530;10.256;2023-04-12T14:24:11;15.70;99.90
33881;DHT22;20172;47.530;10.256;2023-04-12T14:26:37;15.60;99.90
33881;DHT22;20172;47.530;10.256;2023-04-12T14:29:04;15.70;99.90
33881;DHT22;20172;47.530;10.256;2023-04-12T14:31:30;15.90;99.90
33881;DHT22;20172;47.530;10.256;2023-04-12T14:33:55;16.10;99.90
33881;DHT22;20172;47.530;10.256;2023-04-12T14:36:21;16.20;99.90
33881;DHT22;20172;47.530;10.256;2023-04-12T14:38:46;16.40;99.90
33881;DHT22;20172;47.530;10.256;2023-04-12T14:41:12;16.30;99.90
33881;DHT22;20172;47.530;10.256;2023-04-12T14:43:38;16.10;99.90
33881;DHT22;20172;47.530;10.256;2023-04-12T14:46:03;16.00;99.90
33881;DHT22;20172;47.530;10.256;2023-04-12T14:48:29;15.90;99.90
33881;DHT22;20172;47.530;10.256;2023-04-12T14:50:55;16.40;99.90
33881;DHT22;20172;47.530;10.256;2023-04-12T14:53:20;17.50;99.90
33881;DHT22;20172;47.530;10.256;2023-04-12T14:55:46;17.90;99.90
33881;DHT22;20172;47.530;10.256;2023-04-12T14:58:12;18.20;99.90
33881;DHT22;20172;47.530;10.256;2023-04-12T15:00:38;18.30;99.90
33881;DHT22;20172;47.530;10.256;2023-04-12T15:03:04;19.30;99.90
33881;DHT22;20172;47.530;10.256;2023-04-12T15:05:31;19.50;99.90
33881;DHT22;20172;47.530;10.256;2023-04-12T15:07:57;20.70;98.50
33881;DHT22;20172;47.530;10.256;2023-04-12T15:10:22;21.50;96.40
33881;DHT22;20172;47.530;10.256;2023-04-12T15:12:50;20.80;96.70
33881;DHT22;20172;47.530;10.256;2023-04-12T15:15:15;19.60;97.70
33881;DHT22;20172;47.530;10.256;2023-04-12T15:17:41;18.60;99.30
33881;DHT22;20172;47.530;10.256;2023-04-12T15:20:07;17.70;99.90
33881;DHT22;20172;47.530;10.256;2023-04-12T15:22:37;17.10;99.90
33881;DHT22;20172;47.530;10.256;2023-04-12T15:25:02;16.60;99.90
33881;DHT22;20172;47.530;10.256;2023-04-12T15:27:28;16.20;99.90
33881;DHT22;20172;47.530;10.256;2023-04-12T15:29:58;15.90;99.90
33881;DHT22;20172;47.530;10.256;2023-04-12T15:32:25;15.60;99.90
33881;DHT22;20172;47.530;10.256;2023-04-12T15:34:51;15.30;99.90
33881;DHT22;20172;47.530;10.256;2023-04-12T15:37:16;15.20;99.90
33881;DHT22;20172;47.530;10.256;2023-04-12T15:39:42;15.00;99.90
33881;DHT22;20172;47.530;10.256;2023-04-12T15:42:07;14.90;99.90
33881;DHT22;20172;47.530;10.256;2023-04-12T15:44:33;14.80;99.90
33881;DHT22;20172;47.530;10.256;2023-04-12T15:46:58;14.70;99.90
33881;DHT22;20172;47.530;10.256;2023-04-12T15:49:24;14.50;99.90
33881;DHT22;20172;47.530;10.256;2023-04-12T15:51:50;14.30;99.90
33881;DHT22;20172;47.530;10.256;2023-04-12T15:54:17;14.10;99.90